Luray, MO

9:30 PM CDT on July 31, 2014 (GMT -0500)
KIADONNE3 Elev 700 ft | 40.63 °N, 91.60 °W | Change Station

Current weather conditions updated 28 seconds ago

Clear
Clear
68.5 °F
Feels Like 68.5 °F
N
0.0
Wind Variable Wind from ESE
Gusts 0.0 mph

Tomorrow is forecast to be nearly the same temperature as today. Scattered thunderstorms.

Today
High -- | Low -- °F
--% Chance of Precip.
Yesterday
High -- | Low -- °F
Precip. -- in
6:03 AM 8:23 PM
Waxing Crescent, 22% visible
Pressure 30.05 in
Visibility 10.0 miles
Clouds Clear
Dew Point 68 °F
Humidity 99%
Rainfall 0.00 in
Snow Depth Not available.
UV 0 out of 12
Pollen 7.00 out of 12
Air Quality Not available.
Flu Activity Not available.
METAR KEOK 010215Z AUTO 00000KT 10SM CLR 21/19 A3005 RMK AO2

More Conditions Fewer Conditions

Pressure 30.05 in
Visibility 10.0 miles
Clouds Clear
Dew Point 68 °F
Humidity 99%
Rainfall 0.00 in
Snow Depth Not available.
UV 0 out of 12
Pollen 7.00 out of 12
Air Quality Not available.
Flu Activity Not available.
METAR KEOK 010215Z AUTO 00000KT 10SM CLR 21/19 A3005 RMK AO2

More Conditions Fewer Conditions

10-Day Weather Forecast

Almanac

Astronomy

Jul. 31, 2014 Rise Set
Actual Time 6:03 AM CDT 8:23 PM CDT
Civil Twilight 5:33 AM CDT 8:54 PM CDT
Nautical Twilight 4:55 AM CDT 9:31 PM CDT
Astronomical Twilight 4:13 AM CDT 10:13 PM CDT
Moon 10:32 AM CDT (7/31) 10:35 PM CDT (7/31)
Length of Visible Light 15h 21m
Length of Day
14h 19m
Tomorrow will be 2m 1s shorter.
Waxing Crescent, 22% of the Moon is Illuminated
Today
Waxing Crescent
Aug 3
First Quarter
Aug 10
Full
Aug 17
Last Quarter
Aug 25
New

Today's Extremes

State Highs State Lows

Community

WunderPhotos

Upload Photos

1,739,503 photos uploaded!

Nearby

Snow Depth

Station Depth Elevation
No new snow has been reported.

Earthquake Activity

City Distance Mag. Time & Date
No recent earthquake activity has been reported nearby.
Minimum magnitude displayed is 2.5.

Coastal Water Temperatures

Place Temperature
No Stations Reporting

Nearby Weather Stations

Station Location Temp. Dew Point Humidity Wind Precip. Elev Updated Type
Donnellson, IA 68.5 °F 68 °F 99% ESE  at  0.0 mph 0.00 in / hr 700 ft 9:29 PM CDT Rapid Fire
Lang Enterprises, Donnellson, IA 69.3 °F 65 °F 85% WSW  at  1.0 mph 0.00 in / hr 689 ft 9:30 PM CDT Normal
JEFFERSONVILLE, Donnellson, IA 67.5 °F 62 °F 81% WNW  at  0.0 mph - / hr 653 ft 9:26 PM CDT Normal

Show More Stations Show Fewer Stations